createdAt,value
2024-05-09T00:01:38.004Z,99.90
2024-05-09T00:04:08.116Z,99.90
2024-05-09T00:06:38.687Z,99.90
2024-05-09T00:09:10.082Z,99.90
2024-05-09T00:11:42.005Z,99.90
2024-05-09T00:14:11.067Z,99.90
2024-05-09T00:16:40.051Z,99.90
2024-05-09T00:19:09.135Z,99.90
2024-05-09T00:21:37.741Z,99.90
2024-05-09T00:24:09.854Z,99.90
2024-05-09T00:26:39.881Z,99.90
2024-05-09T00:29:09.738Z,99.90
2024-05-09T00:31:38.332Z,99.90
2024-05-09T00:34:07.091Z,99.90
2024-05-09T00:36:37.778Z,99.90
2024-05-09T00:39:10.016Z,99.90
2024-05-09T00:41:38.453Z,99.90
2024-05-09T00:44:09.073Z,99.90
2024-05-09T00:46:37.941Z,99.90
2024-05-09T00:49:08.330Z,99.90
2024-05-09T00:51:37.925Z,99.90
2024-05-09T00:54:07.569Z,99.90
2024-05-09T00:56:38.387Z,99.90
2024-05-09T00:59:07.281Z,99.90
2024-05-09T01:01:37.496Z,99.90
2024-05-09T01:04:06.470Z,99.90
2024-05-09T01:06:35.076Z,99.90
2024-05-09T01:09:05.186Z,99.90
2024-05-09T01:11:41.361Z,99.90
2024-05-09T01:14:11.218Z,99.90
2024-05-09T01:16:44.210Z,99.90
2024-05-09T01:19:26.379Z,99.90
2024-05-09T01:21:58.358Z,99.90
2024-05-09T01:24:26.798Z,99.90
2024-05-09T01:26:58.887Z,99.90
2024-05-09T01:29:28.424Z,99.90
2024-05-09T01:31:59.872Z,99.90
2024-05-09T01:34:28.728Z,99.90
2024-05-09T01:36:58.446Z,99.90
2024-05-09T01:39:30.476Z,99.90
2024-05-09T01:42:01.441Z,99.90
2024-05-09T01:44:30.781Z,99.90
2024-05-09T01:47:02.780Z,99.90
2024-05-09T01:49:36.784Z,99.90
2024-05-09T01:52:07.734Z,99.90
2024-05-09T01:54:37.224Z,99.90
2024-05-09T01:57:10.045Z,99.90
2024-05-09T01:59:39.622Z,99.90
2024-05-09T02:02:08.368Z,99.90
2024-05-09T02:04:41.324Z,99.90
2024-05-09T02:07:11.357Z,99.90
2024-05-09T02:09:40.724Z,99.90
2024-05-09T02:12:12.346Z,99.90
2024-05-09T02:14:41.727Z,99.90
2024-05-09T02:17:13.609Z,99.90
2024-05-09T02:19:42.467Z,99.90
2024-05-09T02:22:11.241Z,99.90
2024-05-09T02:24:39.648Z,99.90
2024-05-09T02:27:10.452Z,99.90
2024-05-09T02:29:40.294Z,99.90
2024-05-09T02:32:09.013Z,99.90
2024-05-09T02:34:37.440Z,99.90
2024-05-09T02:37:08.624Z,99.90
2024-05-09T02:39:40.369Z,99.90
2024-05-09T02:42:12.914Z,99.90
2024-05-09T02:44:43.118Z,99.90
2024-05-09T02:47:14.858Z,99.90
2024-05-09T02:49:43.963Z,99.90
2024-05-09T02:52:18.239Z,99.90
2024-05-09T02:54:48.074Z,99.90
2024-05-09T02:57:18.689Z,99.90
2024-05-09T02:59:52.382Z,99.90
2024-05-09T03:02:23.697Z,99.90
2024-05-09T03:04:53.045Z,99.90
2024-05-09T03:07:28.419Z,99.90
2024-05-09T03:09:57.526Z,99.90
2024-05-09T03:12:36.571Z,99.90
2024-05-09T03:15:08.933Z,99.90
2024-05-09T03:17:47.786Z,99.90
2024-05-09T03:20:23.846Z,99.90
2024-05-09T03:22:56.889Z,99.90
2024-05-09T03:28:17.796Z,99.90
2024-05-09T03:30:48.700Z,99.90
2024-05-09T03:33:20.010Z,99.90
2024-05-09T03:38:44.593Z,99.90
2024-05-09T03:41:15.774Z,99.90
2024-05-09T03:43:55.269Z,99.90
2024-05-09T03:46:30.950Z,99.90
2024-05-09T03:49:03.477Z,99.90
2024-05-09T03:51:42.777Z,99.90
2024-05-09T03:54:12.484Z,99.90
2024-05-09T03:56:48.409Z,99.90
2024-05-09T03:59:20.976Z,99.90
2024-05-09T04:01:50.632Z,99.90
2024-05-09T04:04:20.322Z,99.90
2024-05-09T04:06:51.711Z,99.90
2024-05-09T04:09:25.690Z,99.90
2024-05-09T04:11:54.986Z,99.90
2024-05-09T04:14:24.270Z,99.90
2024-05-09T04:16:54.553Z,99.90
2024-05-09T04:19:25.620Z,99.90
2024-05-09T04:21:57.731Z,99.90
2024-05-09T04:24:28.254Z,99.90
2024-05-09T04:26:56.686Z,99.90
2024-05-09T04:29:25.330Z,99.90
2024-05-09T04:31:54.465Z,99.90
2024-05-09T04:34:26.357Z,99.90
2024-05-09T04:36:54.981Z,99.90
2024-05-09T04:39:25.472Z,99.90
2024-05-09T04:41:55.725Z,99.90
2024-05-09T04:44:26.164Z,99.90
2024-05-09T04:46:55.023Z,99.90
2024-05-09T04:49:29.246Z,99.90
2024-05-09T04:52:02.845Z,99.90
2024-05-09T04:54:36.423Z,99.90
2024-05-09T04:57:05.650Z,99.90
2024-05-09T04:59:40.238Z,99.90
2024-05-09T05:02:11.088Z,99.90
2024-05-09T05:04:39.806Z,99.90
2024-05-09T05:07:11.538Z,99.90
2024-05-09T05:09:40.150Z,99.90
2024-05-09T05:12:31.067Z,99.90
2024-05-09T05:15:03.393Z,99.90
2024-05-09T05:17:34.299Z,99.90
2024-05-09T05:20:03.587Z,99.90
2024-05-09T05:22:35.802Z,99.90
2024-05-09T05:25:06.478Z,99.90
2024-05-09T05:27:35.841Z,99.90
2024-05-09T05:30:09.545Z,99.90
2024-05-09T05:32:44.644Z,99.90
2024-05-09T05:35:13.506Z,99.90
2024-05-09T05:37:43.707Z,99.90
2024-05-09T05:40:20.685Z,99.90
2024-05-09T05:42:53.634Z,99.90
2024-05-09T05:45:27.309Z,99.90
2024-05-09T05:47:56.639Z,99.90
2024-05-09T05:50:34.609Z,99.90
2024-05-09T05:53:08.809Z,99.90
2024-05-09T05:55:41.615Z,99.90
2024-05-09T05:58:14.048Z,99.90
2024-05-09T06:00:46.660Z,99.90
2024-05-09T06:03:19.209Z,99.90
2024-05-09T06:05:47.903Z,99.90
2024-05-09T06:08:18.610Z,99.90
2024-05-09T06:10:47.421Z,99.90
2024-05-09T06:13:17.047Z,99.90
2024-05-09T06:15:49.182Z,99.90
2024-05-09T06:18:18.041Z,99.90
2024-05-09T06:20:49.198Z,99.90
2024-05-09T06:23:18.133Z,99.90
2024-05-09T06:25:47.120Z,99.90
2024-05-09T06:28:16.170Z,99.90
2024-05-09T06:30:47.776Z,99.90
2024-05-09T06:33:17.109Z,99.90
2024-05-09T06:35:47.806Z,99.90
2024-05-09T06:38:16.685Z,99.90
2024-05-09T06:40:48.994Z,99.90
2024-05-09T06:43:21.019Z,99.90
2024-05-09T06:45:52.865Z,99.90
2024-05-09T06:48:22.520Z,99.90
2024-05-09T06:50:52.144Z,99.90
2024-05-09T06:53:28.491Z,99.90
2024-05-09T06:55:57.204Z,99.90
2024-05-09T06:58:30.489Z,99.90
2024-05-09T07:00:59.306Z,99.90
2024-05-09T07:03:30.481Z,99.90
2024-05-09T07:06:00.428Z,99.90
2024-05-09T07:08:29.664Z,99.90
2024-05-09T07:11:00.234Z,99.90
2024-05-09T07:13:30.007Z,99.90
2024-05-09T07:15:59.305Z,99.90
2024-05-09T07:18:28.665Z,99.90
2024-05-09T07:20:58.303Z,99.90
2024-05-09T07:23:31.505Z,99.90
2024-05-09T07:26:01.464Z,99.90
2024-05-09T07:28:29.936Z,99.90
2024-05-09T07:30:59.630Z,99.90
2024-05-09T07:33:28.740Z,99.90
2024-05-09T07:35:58.189Z,99.90
2024-05-09T07:38:29.522Z,99.90
2024-05-09T07:41:00.667Z,99.90
2024-05-09T07:43:33.710Z,99.90
2024-05-09T07:46:48.228Z,99.90
2024-05-09T07:54:01.315Z,99.90
2024-05-09T07:56:32.813Z,99.90
2024-05-09T07:59:02.634Z,99.90
2024-05-09T08:01:32.590Z,99.90
2024-05-09T08:04:03.730Z,99.90
2024-05-09T08:06:34.340Z,99.90
2024-05-09T08:09:08.047Z,99.90
2024-05-09T08:11:40.050Z,99.90
2024-05-09T08:14:12.616Z,99.90
2024-05-09T08:16:41.992Z,99.90
2024-05-09T08:19:11.228Z,96.20
2024-05-09T08:21:40.385Z,92.70
2024-05-09T08:24:12.320Z,81.50
2024-05-09T08:26:42.733Z,75.50
2024-05-09T08:29:13.111Z,78.00
2024-05-09T08:31:45.425Z,82.50
2024-05-09T08:34:15.767Z,79.70
2024-05-09T08:36:44.730Z,83.10
2024-05-09T08:39:14.780Z,79.80
2024-05-09T08:41:45.247Z,80.50
2024-05-09T08:44:18.355Z,82.40
2024-05-09T08:46:50.937Z,85.80
2024-05-09T08:49:20.987Z,88.20
2024-05-09T08:51:52.786Z,86.40
2024-05-09T08:54:23.310Z,82.70
2024-05-09T08:56:52.971Z,73.80
2024-05-09T08:59:34.570Z,67.60
2024-05-09T09:02:05.156Z,65.10
2024-05-09T09:04:38.764Z,57.50
2024-05-09T09:07:10.365Z,52.70
2024-05-09T09:09:44.976Z,55.40
2024-05-09T09:12:17.396Z,52.70
2024-05-09T09:14:48.053Z,51.50
2024-05-09T09:17:18.014Z,52.70
2024-05-09T09:19:47.470Z,51.70
2024-05-09T09:22:18.060Z,50.50
2024-05-09T09:24:46.978Z,52.90
2024-05-09T09:27:16.242Z,56.60
2024-05-09T09:29:45.546Z,59.50
2024-05-09T09:32:15.840Z,62.50
2024-05-09T09:34:46.222Z,65.60
2024-05-09T09:37:17.255Z,68.30
2024-05-09T09:39:48.919Z,71.70
2024-05-09T09:42:20.156Z,71.90
2024-05-09T09:44:58.168Z,73.20
2024-05-09T09:47:35.097Z,78.10
2024-05-09T09:50:09.565Z,76.80
2024-05-09T09:52:41.029Z,79.70
2024-05-09T09:55:11.744Z,80.10
2024-05-09T09:57:41.840Z,81.70
2024-05-09T10:00:24.460Z,82.80
2024-05-09T10:03:03.216Z,81.20
2024-05-09T10:05:35.539Z,84.40
2024-05-09T10:08:09.256Z,84.70
2024-05-09T10:10:40.001Z,81.70
2024-05-09T10:13:09.202Z,84.60
2024-05-09T10:15:49.090Z,83.60
2024-05-09T10:18:19.963Z,83.10
2024-05-09T10:20:51.431Z,80.80
2024-05-09T10:23:27.560Z,79.50
2024-05-09T10:26:01.693Z,79.60
2024-05-09T10:28:36.109Z,81.20
2024-05-09T10:31:12.509Z,81.30
2024-05-09T10:33:53.482Z,80.90
2024-05-09T10:36:24.510Z,77.80
2024-05-09T10:38:54.999Z,78.10
2024-05-09T10:41:27.045Z,79.00
2024-05-09T10:43:58.061Z,80.70
2024-05-09T10:46:28.012Z,80.40
2024-05-09T10:49:04.255Z,80.30
2024-05-09T10:51:35.120Z,81.90
2024-05-09T10:54:04.468Z,83.90
2024-05-09T10:56:33.165Z,83.20
2024-05-09T10:59:04.555Z,83.50
2024-05-09T11:01:34.216Z,87.40
2024-05-09T11:04:04.635Z,87.10
2024-05-09T11:06:36.229Z,85.90
2024-05-09T11:09:06.891Z,86.60
2024-05-09T11:11:38.241Z,88.10
2024-05-09T11:14:18.226Z,90.70
2024-05-09T11:16:47.497Z,90.30
2024-05-09T11:19:16.802Z,90.00
2024-05-09T11:21:51.901Z,90.30
2024-05-09T11:24:20.850Z,90.50
2024-05-09T11:26:49.353Z,90.60
2024-05-09T11:29:19.725Z,90.20
2024-05-09T11:31:48.324Z,90.00
2024-05-09T11:34:20.466Z,90.30
2024-05-09T11:36:52.803Z,85.40
2024-05-09T11:39:21.316Z,89.40
2024-05-09T11:41:51.798Z,88.40
2024-05-09T11:44:21.146Z,87.80
2024-05-09T11:46:52.593Z,87.20
2024-05-09T11:49:25.366Z,86.40
2024-05-09T11:51:56.132Z,85.50
2024-05-09T11:54:24.853Z,87.20
2024-05-09T11:56:56.052Z,87.80
2024-05-09T11:59:25.828Z,87.10
2024-05-09T12:01:54.526Z,86.80
2024-05-09T12:04:24.599Z,84.20
2024-05-09T12:06:53.259Z,83.50
2024-05-09T12:09:21.873Z,83.40
2024-05-09T12:11:51.685Z,83.40
2024-05-09T12:14:20.829Z,83.10
2024-05-09T12:16:53.986Z,83.00
2024-05-09T12:19:22.661Z,83.20
2024-05-09T12:21:55.151Z,83.20
2024-05-09T12:24:26.083Z,80.90
2024-05-09T12:26:55.440Z,79.30
2024-05-09T12:29:25.386Z,82.00
2024-05-09T12:32:03.252Z,80.30
2024-05-09T12:34:37.594Z,78.10
2024-05-09T12:37:13.735Z,78.60
2024-05-09T12:39:44.376Z,77.80
2024-05-09T12:42:25.883Z,74.20
2024-05-09T12:44:56.624Z,74.40
2024-05-09T12:47:28.981Z,72.60
2024-05-09T12:49:59.142Z,75.00
2024-05-09T12:52:28.176Z,71.10
2024-05-09T12:54:56.717Z,73.10
2024-05-09T12:57:28.519Z,70.20
2024-05-09T12:59:57.381Z,72.80
2024-05-09T13:02:26.993Z,73.60
2024-05-09T13:04:58.031Z,74.60
2024-05-09T13:07:28.050Z,74.30
2024-05-09T13:09:57.343Z,75.10
2024-05-09T13:12:28.256Z,73.40
2024-05-09T13:14:58.004Z,75.20
2024-05-09T13:17:26.516Z,74.50
2024-05-09T13:19:56.654Z,78.90
2024-05-09T13:22:26.006Z,77.10
2024-05-09T13:24:54.691Z,77.80
2024-05-09T13:27:24.928Z,79.20
2024-05-09T13:29:53.087Z,80.30
2024-05-09T13:32:21.920Z,78.90
2024-05-09T13:34:55.101Z,77.50
2024-05-09T13:37:23.985Z,77.30
2024-05-09T13:39:52.807Z,78.80
2024-05-09T13:42:23.638Z,79.10
2024-05-09T13:45:04.651Z,79.30
2024-05-09T13:47:33.663Z,81.20
2024-05-09T13:50:05.345Z,82.20
2024-05-09T13:52:35.595Z,81.30
2024-05-09T13:55:06.669Z,82.70
2024-05-09T13:57:35.000Z,82.10
2024-05-09T14:00:07.381Z,83.10
2024-05-09T14:02:41.243Z,83.40
2024-05-09T14:05:09.739Z,84.30
2024-05-09T14:07:41.758Z,84.70
2024-05-09T14:10:19.923Z,85.20
2024-05-09T14:12:55.777Z,83.20
2024-05-09T14:15:25.310Z,82.80
2024-05-09T14:17:57.250Z,83.30
2024-05-09T14:20:31.236Z,82.20
2024-05-09T14:23:03.115Z,82.10
2024-05-09T14:25:37.696Z,84.00
2024-05-09T14:28:09.435Z,84.40
2024-05-09T14:30:40.571Z,83.80
2024-05-09T14:33:12.708Z,82.50
2024-05-09T14:35:41.323Z,82.40
2024-05-09T14:38:14.170Z,81.90
2024-05-09T14:40:44.343Z,83.30
2024-05-09T14:43:14.526Z,83.50
2024-05-09T14:45:44.396Z,82.60
2024-05-09T14:48:16.673Z,82.00
2024-05-09T14:50:46.027Z,82.50
2024-05-09T14:53:14.829Z,82.50
2024-05-09T14:55:45.184Z,83.00
2024-05-09T14:58:14.075Z,85.60
2024-05-09T15:00:46.855Z,85.80
2024-05-09T15:03:22.492Z,83.80
2024-05-09T15:05:52.506Z,82.30
2024-05-09T15:08:21.249Z,83.10
2024-05-09T15:10:53.216Z,81.30
2024-05-09T15:13:23.777Z,79.60
2024-05-09T15:15:53.654Z,82.20
2024-05-09T15:18:23.543Z,80.00
2024-05-09T15:20:54.588Z,80.60
2024-05-09T15:23:23.084Z,80.30
2024-05-09T15:25:53.412Z,80.70
2024-05-09T15:28:22.606Z,79.30
2024-05-09T15:30:52.540Z,79.90
2024-05-09T15:33:21.179Z,80.60
2024-05-09T15:35:50.313Z,81.70
2024-05-09T15:38:19.443Z,80.60
2024-05-09T15:40:49.681Z,80.90
2024-05-09T15:43:21.461Z,82.40
2024-05-09T15:45:50.524Z,81.00
2024-05-09T15:48:21.098Z,78.50
2024-05-09T15:50:50.735Z,77.10
2024-05-09T15:53:19.523Z,78.60
2024-05-09T15:55:50.500Z,78.00
2024-05-09T15:58:18.991Z,77.60
2024-05-09T16:00:49.574Z,74.50
2024-05-09T16:03:21.836Z,77.50
2024-05-09T16:05:52.624Z,78.00
2024-05-09T16:08:21.572Z,79.70
2024-05-09T16:10:50.814Z,79.70
2024-05-09T16:13:21.095Z,78.50
2024-05-09T16:15:50.750Z,79.50
2024-05-09T16:18:19.656Z,79.00
2024-05-09T16:20:50.490Z,78.10
2024-05-09T16:23:20.637Z,77.80
2024-05-09T16:25:53.511Z,77.20
2024-05-09T16:28:27.227Z,79.40
2024-05-09T16:30:58.578Z,78.80
2024-05-09T16:33:28.624Z,77.50
2024-05-09T16:36:00.321Z,78.80
2024-05-09T16:38:30.045Z,78.90
2024-05-09T16:41:06.520Z,80.20
2024-05-09T16:43:36.898Z,81.10
2024-05-09T16:46:06.127Z,76.90
2024-05-09T16:48:36.750Z,75.70
2024-05-09T16:51:07.113Z,73.50
2024-05-09T16:56:27.344Z,73.50
2024-05-09T16:58:58.309Z,72.30
2024-05-09T17:01:27.496Z,74.30
2024-05-09T17:04:02.158Z,74.30
2024-05-09T17:06:31.069Z,74.10
2024-05-09T17:09:08.127Z,75.00
2024-05-09T17:11:40.043Z,74.80
2024-05-09T17:14:09.296Z,75.20
2024-05-09T17:16:40.797Z,76.90
2024-05-09T17:19:10.961Z,76.80
2024-05-09T17:21:40.503Z,76.80
2024-05-09T17:24:10.976Z,77.60
2024-05-09T17:26:39.649Z,77.90
2024-05-09T17:29:12.554Z,80.60
2024-05-09T17:31:42.896Z,80.20
2024-05-09T17:34:10.142Z,81.70
2024-05-09T17:36:37.434Z,82.00
2024-05-09T17:39:04.582Z,82.10
2024-05-09T17:41:31.656Z,84.10
2024-05-09T17:43:58.781Z,84.70
2024-05-09T17:46:26.070Z,84.20
2024-05-09T17:48:53.402Z,84.30
2024-05-09T17:51:20.570Z,85.10
2024-05-09T17:53:48.018Z,86.00
2024-05-09T17:56:15.735Z,88.80
2024-05-09T17:58:42.851Z,88.10
2024-05-09T18:01:09.984Z,88.20
2024-05-09T18:03:37.432Z,89.60
2024-05-09T18:06:05.416Z,88.80
2024-05-09T18:08:32.811Z,89.20
2024-05-09T18:11:00.085Z,88.10
2024-05-09T18:13:27.478Z,90.00
2024-05-09T18:15:54.789Z,89.40
2024-05-09T18:18:22.023Z,90.00
2024-05-09T18:20:49.527Z,90.90
2024-05-09T18:23:18.512Z,91.60
2024-05-09T18:25:47.039Z,92.50
2024-05-09T18:28:15.146Z,93.20
2024-05-09T18:30:42.448Z,94.00
2024-05-09T18:33:11.099Z,94.40
2024-05-09T18:35:38.784Z,95.00
2024-05-09T18:38:06.152Z,95.40
2024-05-09T18:40:36.524Z,95.60
2024-05-09T18:43:07.490Z,96.00
2024-05-09T18:45:39.043Z,96.60
2024-05-09T18:48:08.059Z,96.70
2024-05-09T18:50:39.197Z,97.20
2024-05-09T18:53:08.850Z,97.70
2024-05-09T18:55:36.107Z,98.60
2024-05-09T18:58:04.583Z,99.10
2024-05-09T19:00:36.212Z,99.90
2024-05-09T19:03:12.390Z,99.90
2024-05-09T19:05:42.808Z,99.90
2024-05-09T19:08:11.250Z,99.90
2024-05-09T19:10:39.346Z,99.90
2024-05-09T19:13:11.110Z,99.90
2024-05-09T19:15:41.283Z,99.90
2024-05-09T19:18:09.627Z,99.90
2024-05-09T19:20:37.502Z,99.90
2024-05-09T19:23:06.859Z,99.90
2024-05-09T19:25:34.761Z,99.90
2024-05-09T19:28:02.168Z,99.90
2024-05-09T19:30:37.672Z,99.90
2024-05-09T19:33:09.423Z,99.90
2024-05-09T19:35:37.080Z,99.90
2024-05-09T19:38:05.212Z,99.90
2024-05-09T19:40:34.144Z,99.90
2024-05-09T19:43:03.164Z,99.90
2024-05-09T19:45:35.674Z,99.90
2024-05-09T19:48:04.140Z,99.90
2024-05-09T19:50:39.722Z,99.90
2024-05-09T19:53:11.433Z,99.90
2024-05-09T19:55:39.264Z,99.90
2024-05-09T19:58:07.721Z,99.90
2024-05-09T20:00:41.212Z,99.90
2024-05-09T20:03:12.028Z,99.90
2024-05-09T20:05:39.939Z,99.90
2024-05-09T20:08:07.681Z,99.90
2024-05-09T20:10:36.216Z,99.90
2024-05-09T20:13:06.920Z,99.90
2024-05-09T20:15:35.747Z,99.90
2024-05-09T20:18:03.398Z,99.90
2024-05-09T20:20:37.579Z,99.90
2024-05-09T20:23:08.974Z,99.90
2024-05-09T20:25:36.160Z,99.90
2024-05-09T20:28:03.366Z,99.90
2024-05-09T20:30:33.057Z,99.90
2024-05-09T20:33:09.462Z,99.90
2024-05-09T20:35:37.217Z,99.90
2024-05-09T20:38:04.913Z,99.90
2024-05-09T20:40:36.455Z,99.90
2024-05-09T20:43:07.697Z,99.90
2024-05-09T20:45:35.934Z,99.90
2024-05-09T20:48:03.431Z,99.90
2024-05-09T20:50:37.773Z,99.90
2024-05-09T20:53:13.010Z,99.90
2024-05-09T20:55:41.475Z,99.90
2024-05-09T20:58:09.606Z,99.90
2024-05-09T21:00:40.713Z,99.90
2024-05-09T21:03:12.443Z,99.90
2024-05-09T21:05:40.810Z,99.90
2024-05-09T21:08:08.585Z,99.90
2024-05-09T21:10:36.975Z,99.90
2024-05-09T21:13:05.475Z,99.90
2024-05-09T21:15:33.411Z,99.90
2024-05-09T21:18:00.620Z,99.90
2024-05-09T21:20:31.593Z,99.90
2024-05-09T21:23:00.636Z,99.90
2024-05-09T21:25:27.921Z,99.90
2024-05-09T21:27:55.119Z,99.90
2024-05-09T21:30:32.063Z,99.90
2024-05-09T21:33:09.546Z,99.90
2024-05-09T21:35:37.993Z,99.90
2024-05-09T21:38:05.901Z,99.90
2024-05-09T21:40:35.314Z,99.90
2024-05-09T21:43:04.760Z,99.90
2024-05-09T21:45:32.369Z,99.90
2024-05-09T21:47:59.821Z,99.90
2024-05-09T21:50:35.842Z,99.90
2024-05-09T21:53:07.350Z,99.90
2024-05-09T21:55:34.691Z,99.90
2024-05-09T21:58:02.595Z,99.90
2024-05-09T22:00:36.090Z,99.90
2024-05-09T22:03:09.290Z,99.90
2024-05-09T22:05:38.254Z,99.90
2024-05-09T22:08:06.236Z,99.90
2024-05-09T22:10:35.856Z,99.90
2024-05-09T22:13:05.769Z,99.90
2024-05-09T22:15:39.207Z,99.90
2024-05-09T22:18:08.591Z,99.90
2024-05-09T22:20:39.009Z,99.90
2024-05-09T22:23:08.332Z,99.90
2024-05-09T22:25:36.451Z,99.90
2024-05-09T22:28:04.385Z,99.90
2024-05-09T22:30:36.731Z,99.90
2024-05-09T22:33:09.280Z,99.90
2024-05-09T22:35:37.819Z,99.90
2024-05-09T22:38:05.006Z,99.90
2024-05-09T22:40:42.464Z,99.90
2024-05-09T22:43:18.675Z,99.90
2024-05-09T22:45:47.245Z,99.90
2024-05-09T22:48:14.730Z,99.90
2024-05-09T22:50:41.883Z,99.90
2024-05-09T22:53:08.962Z,99.90
2024-05-09T22:55:36.201Z,99.90
2024-05-09T22:58:03.341Z,99.90
2024-05-09T23:00:32.362Z,99.90
2024-05-09T23:03:00.966Z,99.90
2024-05-09T23:05:28.842Z,99.90
2024-05-09T23:07:56.162Z,99.90
2024-05-09T23:10:31.102Z,99.90
2024-05-09T23:13:03.119Z,99.90
2024-05-09T23:15:30.715Z,99.90
2024-05-09T23:17:58.523Z,99.90
2024-05-09T23:20:33.499Z,99.90
2024-05-09T23:23:05.984Z,99.90
2024-05-09T23:25:33.112Z,99.90
2024-05-09T23:28:00.303Z,99.90
2024-05-09T23:30:36.059Z,99.90
2024-05-09T23:33:06.674Z,99.90
2024-05-09T23:35:33.869Z,99.90
2024-05-09T23:38:01.004Z,99.90
2024-05-09T23:40:37.616Z,99.90
2024-05-09T23:43:11.851Z,99.90
2024-05-09T23:45:39.914Z,99.90
2024-05-09T23:48:07.865Z,99.90
2024-05-09T23:50:37.842Z,99.90
2024-05-09T23:53:08.464Z,99.90
2024-05-09T23:55:36.744Z,99.90
2024-05-09T23:58:04.124Z,99.90
